Time;durP1;ratioP1;P1;durP2;ratioP2;P2;SDS_P1;SDS_P2;PMS_P1;PMS_P2;Temp;Humidity;BMP_temperature;BMP_pressure;BME280_temperature;BME280_humidity;BME280_pressure;Samples;Min_cycle;Max_cycle;Signal;HPM_P1;HPM_P2
2021/04/07 00:00:16;;;;;;;2.97;2.72;;;-0.10;99.90;;;;;;5007545;28;20195;-70
2021/04/07 00:02:43;;;;;;;3.70;2.50;;;-0.10;99.90;;;;;;5007911;28;20662;-70
2021/04/07 00:05:11;;;;;;;2.88;2.67;;;-0.20;99.90;;;;;;5008097;28;20583;-70
2021/04/07 00:07:38;;;;;;;3.20;2.90;;;-0.20;99.90;;;;;;5008040;28;20241;-70
2021/04/07 00:10:07;;;;;;;5.28;2.78;;;-0.20;99.90;;;;;;5007919;28;20285;-70
2021/04/07 00:12:33;;;;;;;4.05;3.08;;;-0.20;99.90;;;;;;5007976;28;20195;-71
2021/04/07 00:14:59;;;;;;;2.70;2.50;;;-0.30;99.90;;;;;;5008046;28;20191;-71
2021/04/07 00:17:25;;;;;;;2.38;2.15;;;-0.30;99.90;;;;;;5007577;28;20408;-71
2021/04/07 00:19:53;;;;;;;3.35;2.55;;;-0.30;99.90;;;;;;5007427;28;20199;-71
2021/04/07 00:22:19;;;;;;;2.80;2.60;;;-0.20;99.90;;;;;;5007984;28;20206;-71
2021/04/07 00:24:45;;;;;;;5.50;3.30;;;-0.30;99.90;;;;;;5008718;28;20562;-71
2021/04/07 00:27:13;;;;;;;2.50;2.25;;;-0.30;99.90;;;;;;5008820;28;20202;-71
2021/04/07 00:29:39;;;;;;;2.63;2.20;;;-0.40;99.90;;;;;;5008354;28;20289;-71
2021/04/07 00:32:06;;;;;;;3.33;2.40;;;-0.30;99.90;;;;;;5008869;28;20210;-71
2021/04/07 00:34:33;;;;;;;2.58;2.25;;;-0.40;99.90;;;;;;5008116;28;20210;-70
2021/04/07 00:37:01;;;;;;;2.45;2.25;;;-0.40;99.90;;;;;;5008524;28;20234;-70
2021/04/07 00:39:27;;;;;;;2.95;2.50;;;-0.40;99.90;;;;;;5007573;28;20486;-70
2021/04/07 00:41:53;;;;;;;5.00;2.63;;;-0.40;99.90;;;;;;5008458;28;20202;-70
2021/04/07 00:44:19;;;;;;;3.03;2.72;;;-0.40;99.90;;;;;;5009692;28;20205;-69
2021/04/07 00:46:46;;;;;;;4.88;2.90;;;-0.40;99.90;;;;;;5011911;28;20228;-68
2021/04/07 00:49:12;;;;;;;2.97;2.38;;;-0.40;99.90;;;;;;5011314;28;20223;-70
2021/04/07 00:51:43;;;;;;;2.75;2.42;;;-0.40;99.90;;;;;;5011579;28;20210;-71
2021/04/07 00:54:11;;;;;;;3.00;2.65;;;-0.40;99.90;;;;;;5011762;28;20214;-71
2021/04/07 00:56:38;;;;;;;3.20;2.88;;;-0.30;99.90;;;;;;5011694;28;20198;-70
2021/04/07 00:59:04;;;;;;;2.63;2.20;;;-0.30;99.90;;;;;;5011345;28;20223;-70
2021/04/07 01:01:30;;;;;;;3.85;3.08;;;-0.30;99.90;;;;;;5011616;28;20214;-71
2021/04/07 01:03:56;;;;;;;3.17;2.40;;;-0.30;99.90;;;;;;5011663;28;20209;-71
2021/04/07 01:06:23;;;;;;;3.40;3.10;;;-0.30;99.90;;;;;;5011368;28;20227;-71
2021/04/07 01:08:49;;;;;;;4.50;2.97;;;-0.20;99.90;;;;;;5010872;28;20941;-71
2021/04/07 01:11:17;;;;;;;3.25;2.60;;;-0.20;99.90;;;;;;5011379;28;20198;-69
2021/04/07 01:13:43;;;;;;;3.25;2.55;;;-0.20;99.90;;;;;;5011336;28;20649;-70
2021/04/07 01:16:10;;;;;;;3.10;2.33;;;-0.30;99.90;;;;;;5011275;28;20209;-70
2021/04/07 01:18:36;;;;;;;3.25;2.85;;;-0.30;99.90;;;;;;5010477;28;20288;-70
2021/04/07 01:21:03;;;;;;;3.78;2.50;;;-0.30;99.90;;;;;;5011157;28;20205;-70
2021/04/07 01:23:31;;;;;;;3.00;2.50;;;-0.30;99.90;;;;;;5011340;28;20206;-70
2021/04/07 01:25:58;;;;;;;5.40;3.00;;;-0.30;99.90;;;;;;5010977;28;20272;-70
2021/04/07 01:28:24;;;;;;;3.58;3.28;;;-0.30;99.90;;;;;;5010554;28;20234;-70
2021/04/07 01:30:51;;;;;;;5.82;3.15;;;-0.40;99.90;;;;;;5011225;28;20206;-71
2021/04/07 01:33:22;;;;;;;3.63;3.00;;;-0.40;99.90;;;;;;5010994;28;20198;-70
2021/04/07 01:35:48;;;;;;;2.50;2.30;;;-0.50;99.90;;;;;;5010819;28;20203;-70
2021/04/07 01:38:14;;;;;;;3.22;2.90;;;-0.40;99.90;;;;;;5010239;28;20412;-70
2021/04/07 01:40:42;;;;;;;3.28;2.88;;;-0.40;99.90;;;;;;5011086;28;20697;-71
2021/04/07 01:43:11;;;;;;;3.15;2.60;;;-0.40;99.90;;;;;;5011328;28;20268;-70
2021/04/07 01:45:37;;;;;;;4.63;2.58;;;-0.40;99.90;;;;;;5010540;28;20228;-71
2021/04/07 01:48:05;;;;;;;3.40;3.10;;;-0.40;99.90;;;;;;5010240;28;20226;-70
2021/04/07 01:50:32;;;;;;;5.15;3.10;;;-0.40;99.90;;;;;;5010662;28;20217;-70
2021/04/07 01:52:59;;;;;;;3.40;3.08;;;-0.40;99.90;;;;;;5011316;28;20203;-70
2021/04/07 01:55:25;;;;;;;3.35;3.00;;;-0.50;99.90;;;;;;5010705;28;20685;-70
2021/04/07 01:57:51;;;;;;;3.55;3.20;;;-0.50;99.90;;;;;;5010845;28;20233;-70
2021/04/07 02:00:19;;;;;;;3.10;2.80;;;-0.50;99.90;;;;;;5010523;28;20213;-71
2021/04/07 02:02:45;;;;;;;3.60;2.90;;;-0.50;99.90;;;;;;5011950;28;20321;-72
2021/04/07 02:05:12;;;;;;;4.25;3.47;;;-0.50;99.90;;;;;;5011600;28;20287;-71
2021/04/07 02:07:39;;;;;;;4.03;2.85;;;-0.60;99.90;;;;;;5011861;28;20219;-71
2021/04/07 02:10:08;;;;;;;3.15;2.90;;;-0.60;99.90;;;;;;5010941;28;20210;-71
2021/04/07 02:12:34;;;;;;;4.38;3.42;;;-0.60;99.90;;;;;;5010934;28;20206;-71
2021/04/07 02:15:05;;;;;;;3.70;2.95;;;-0.70;99.90;;;;;;5010792;28;20218;-71
2021/04/07 02:17:32;;;;;;;3.22;2.92;;;-0.60;99.90;;;;;;5010426;28;20222;-70
2021/04/07 02:19:58;;;;;;;6.22;3.40;;;-0.60;99.90;;;;;;5017953;28;20209;-70
2021/04/07 02:22:24;;;;;;;3.55;3.10;;;-0.60;99.90;;;;;;5010645;28;20210;-70
2021/04/07 02:24:50;;;;;;;4.95;3.03;;;-0.70;99.90;;;;;;5010325;28;20209;-70
2021/04/07 02:27:18;;;;;;;4.20;2.92;;;-0.70;99.90;;;;;;5010487;28;20207;-70
2021/04/07 02:29:46;;;;;;;3.60;3.30;;;-0.70;99.90;;;;;;5010019;28;20729;-70
2021/04/07 02:32:13;;;;;;;4.55;3.75;;;-0.70;99.90;;;;;;5010257;28;20736;-70
2021/04/07 02:34:43;;;;;;;3.00;2.60;;;-0.70;99.90;;;;;;5010030;28;20199;-71
2021/04/07 02:37:09;;;;;;;5.18;3.80;;;-0.60;99.90;;;;;;5010272;28;20662;-70
2021/04/07 02:39:35;;;;;;;6.30;3.30;;;-0.60;99.90;;;;;;5009704;28;20211;-70
2021/04/07 02:42:02;;;;;;;3.88;3.10;;;-0.70;99.90;;;;;;5010036;28;20229;-71
2021/04/07 02:44:28;;;;;;;3.35;2.88;;;-0.80;99.90;;;;;;5010162;28;20199;-71
2021/04/07 02:46:54;;;;;;;3.55;3.15;;;-0.80;99.90;;;;;;5009967;28;20225;-71
2021/04/07 02:49:20;;;;;;;5.55;3.80;;;-0.80;99.90;;;;;;5009256;28;20230;-71
2021/04/07 02:51:48;;;;;;;5.30;3.15;;;-0.70;99.90;;;;;;5010078;28;20206;-71
2021/04/07 02:54:14;;;;;;;5.03;4.05;;;-0.70;99.90;;;;;;5009668;28;20256;-71
2021/04/07 02:56:40;;;;;;;5.28;3.78;;;-0.70;99.90;;;;;;5009964;28;20676;-71
2021/04/07 02:59:06;;;;;;;4.07;3.25;;;-0.70;99.90;;;;;;5009252;28;20233;-70
2021/04/07 03:01:33;;;;;;;8.68;3.97;;;-0.70;99.90;;;;;;5009589;28;20584;-71
2021/04/07 03:04:00;;;;;;;6.57;3.90;;;-0.70;99.90;;;;;;5009772;28;20202;-70
2021/04/07 03:06:26;;;;;;;7.10;3.47;;;-0.60;99.90;;;;;;5009268;28;20234;-70
2021/04/07 03:08:53;;;;;;;4.80;3.78;;;-0.60;99.90;;;;;;5009395;28;20230;-70
2021/04/07 03:11:20;;;;;;;5.18;3.40;;;-0.60;99.90;;;;;;5009710;28;20210;-71
2021/04/07 03:13:46;;;;;;;4.88;3.60;;;-0.50;99.90;;;;;;5009842;28;20207;-70
2021/04/07 03:16:12;;;;;;;5.40;3.60;;;-0.50;99.90;;;;;;5009483;28;20241;-70
2021/04/07 03:18:38;;;;;;;6.80;3.85;;;-0.50;99.90;;;;;;5008990;28;20693;-70
2021/04/07 03:21:05;;;;;;;8.18;3.55;;;-0.50;99.90;;;;;;5009632;28;20257;-70
2021/04/07 03:23:32;;;;;;;4.30;3.55;;;-0.50;99.90;;;;;;5009305;28;20233;-70
2021/04/07 03:25:59;;;;;;;5.65;4.10;;;-0.50;99.90;;;;;;5009649;28;20267;-70
2021/04/07 03:28:25;;;;;;;4.82;3.67;;;-0.50;99.90;;;;;;5009386;28;20284;-70
2021/04/07 03:30:51;;;;;;;5.00;3.42;;;-0.40;99.90;;;;;;5009705;28;20202;-68
2021/04/07 03:33:22;;;;;;;3.63;3.28;;;-0.40;99.90;;;;;;5009326;28;20314;-71
2021/04/07 03:35:50;;;;;;;3.33;3.03;;;-0.40;99.90;;;;;;5009635;28;20202;-70
2021/04/07 03:38:16;;;;;;;7.45;4.15;;;-0.30;99.90;;;;;;5008776;28;20945;-71
2021/04/07 03:40:43;;;;;;;3.78;3.47;;;-0.30;99.90;;;;;;5009583;28;20202;-71
2021/04/07 03:43:12;;;;;;;3.65;3.35;;;-0.30;99.90;;;;;;5009283;28;20202;-70
2021/04/07 03:45:42;;;;;;;4.63;3.33;;;-0.30;99.90;;;;;;5009203;28;20226;-71
2021/04/07 03:48:10;;;;;;;3.35;3.05;;;-0.30;99.90;;;;;;5008728;28;20226;-71
2021/04/07 03:50:36;;;;;;;4.82;3.75;;;-0.30;99.90;;;;;;5009178;28;20276;-71
2021/04/07 03:53:03;;;;;;;3.60;3.30;;;-0.30;99.90;;;;;;5009421;28;20199;-71
2021/04/07 03:55:29;;;;;;;3.28;2.97;;;-0.20;99.90;;;;;;5009021;28;20241;-71
2021/04/07 03:57:56;;;;;;;3.70;3.30;;;-0.20;99.90;;;;;;5008878;28;20229;-69
2021/04/07 04:00:23;;;;;;;3.33;2.97;;;-0.30;99.90;;;;;;5009116;28;20202;-70
2021/04/07 04:02:49;;;;;;;3.58;3.28;;;-0.30;99.90;;;;;;5005815;28;20213;-72
2021/04/07 04:05:16;;;;;;;6.72;3.40;;;-0.40;99.90;;;;;;5002195;28;20226;-71
2021/04/07 04:07:42;;;;;;;4.35;3.50;;;-0.30;99.90;;;;;;5008451;28;20238;-70
2021/04/07 04:10:09;;;;;;;3.50;3.20;;;-0.40;99.90;;;;;;5008411;28;20229;-71
2021/04/07 04:12:35;;;;;;;4.97;3.17;;;-0.50;99.90;;;;;;5008916;28;20210;-70
2021/04/07 04:15:02;;;;;;;4.88;3.83;;;-0.50;99.90;;;;;;5008938;28;20901;-70
2021/04/07 04:17:29;;;;;;;4.25;2.83;;;-0.40;99.90;;;;;;5008507;28;20279;-70
2021/04/07 04:19:55;;;;;;;6.03;3.28;;;-0.40;99.90;;;;;;5010222;28;20583;-70
2021/04/07 04:22:22;;;;;;;3.58;3.10;;;-0.40;99.90;;;;;;5011798;28;20207;-71
2021/04/07 04:24:48;;;;;;;4.28;3.22;;;-0.40;99.90;;;;;;5012052;28;20213;-71
2021/04/07 04:27:14;;;;;;;3.85;2.88;;;-0.30;99.90;;;;;;5011813;28;20226;-70
2021/04/07 04:29:40;;;;;;;4.15;3.30;;;-0.30;99.90;;;;;;5011482;28;20207;-70
2021/04/07 04:32:07;;;;;;;3.45;2.83;;;-0.40;99.90;;;;;;5012012;28;20888;-69
2021/04/07 04:34:34;;;;;;;4.03;2.78;;;-0.30;99.90;;;;;;5011654;28;20210;-70
2021/04/07 04:37:01;;;;;;;3.50;3.20;;;-0.30;99.90;;;;;;5011854;28;20689;-69
2021/04/07 04:39:27;;;;;;;5.30;2.88;;;-0.30;99.90;;;;;;5010982;28;20226;-71
2021/04/07 04:41:53;;;;;;;2.67;2.47;;;-0.30;99.90;;;;;;5012584;28;20222;-70
2021/04/07 04:44:19;;;;;;;3.35;2.83;;;-0.30;99.90;;;;;;5011626;28;20609;-69
2021/04/07 04:46:46;;;;;;;3.70;2.78;;;-0.30;99.90;;;;;;5011755;28;20709;-70
2021/04/07 04:49:12;;;;;;;3.75;2.78;;;-0.30;99.90;;;;;;5011300;28;20226;-70
2021/04/07 04:51:39;;;;;;;4.03;3.25;;;-0.30;99.90;;;;;;5012107;28;20210;-70
2021/04/07 04:54:06;;;;;;;4.20;2.42;;;-0.20;99.90;;;;;;5012052;28;20209;-71
2021/04/07 04:56:32;;;;;;;5.47;3.30;;;-0.20;99.90;;;;;;5089417;22;20230;-69
2021/04/07 04:58:59;;;;;;;4.97;2.90;;;-0.20;99.90;;;;;;5030666;28;20228;-70
2021/04/07 05:01:25;;;;;;;3.70;2.90;;;-0.30;99.90;;;;;;5030712;28;20201;-71
2021/04/07 05:03:51;;;;;;;3.83;2.25;;;-0.30;99.90;;;;;;5031247;28;20216;-71
2021/04/07 05:06:17;;;;;;;4.55;2.65;;;-0.20;99.90;;;;;;5031091;28;20232;-71
2021/04/07 05:08:47;;;;;;;2.60;2.40;;;-0.30;99.90;;;;;;5030186;28;20296;-70
2021/04/07 05:11:13;;;;;;;3.63;2.88;;;-0.20;99.90;;;;;;5031452;28;20264;-71
2021/04/07 05:13:39;;;;;;;2.88;2.42;;;-0.20;99.90;;;;;;5031110;28;20202;-71
2021/04/07 05:16:06;;;;;;;4.18;2.80;;;-0.10;99.90;;;;;;5031587;28;20233;-70
2021/04/07 05:18:32;;;;;;;4.45;2.70;;;-0.20;99.90;;;;;;5030365;28;20227;-71
2021/04/07 05:20:59;;;;;;;6.53;2.80;;;-0.20;99.90;;;;;;5031276;28;20657;-71
2021/04/07 05:23:25;;;;;;;2.53;2.33;;;-0.10;99.90;;;;;;5031004;28;20205;-71
2021/04/07 05:25:53;;;;;;;3.22;2.70;;;-0.10;99.90;;;;;;5030953;28;20228;-71
2021/04/07 05:28:19;;;;;;;3.72;2.20;;;-0.10;99.90;;;;;;5030485;28;20222;-71
2021/04/07 05:31:01;;;;;;;4.70;2.40;;;-0.10;99.90;;;;;;5030333;28;20209;-71
2021/04/07 05:33:29;;;;;;;3.88;3.15;;;-0.20;99.90;;;;;;5030688;28;20212;-71
2021/04/07 05:35:56;;;;;;;2.70;2.20;;;-0.10;99.90;;;;;;5031231;28;20206;-71
2021/04/07 05:38:23;;;;;;;4.35;2.45;;;0.00;99.90;;;;;;5030311;28;20226;-70
2021/04/07 05:40:50;;;;;;;4.40;2.70;;;0.10;99.90;;;;;;5029752;28;20461;-70
2021/04/07 05:43:17;;;;;;;5.55;2.47;;;0.00;99.90;;;;;;5030736;28;20472;-71
2021/04/07 05:45:44;;;;;;;4.13;2.60;;;0.00;99.90;;;;;;5030309;28;20604;-69
2021/04/07 05:48:10;;;;;;;5.35;2.55;;;0.00;99.90;;;;;;5029112;28;20221;-69
2021/04/07 05:50:38;;;;;;;2.50;2.30;;;0.00;99.90;;;;;;5018210;28;20248;-70
2021/04/07 05:53:05;;;;;;;3.60;2.60;;;-0.10;99.90;;;;;;5019696;28;20207;-70
2021/04/07 05:55:32;;;;;;;3.45;2.60;;;-0.10;99.90;;;;;;5020333;28;20233;-70
2021/04/07 05:58:00;;;;;;;3.47;2.55;;;-0.10;99.90;;;;;;5019074;28;20224;-70
2021/04/07 06:00:27;;;;;;;4.70;3.05;;;0.00;99.90;;;;;;5014601;28;20199;-69
2021/04/07 06:02:55;;;;;;;4.95;2.65;;;0.00;99.80;;;;;;5016481;28;20614;-70
2021/04/07 06:05:23;;;;;;;6.50;2.88;;;0.00;99.70;;;;;;5016052;28;20198;-71
2021/04/07 06:07:49;;;;;;;5.10;2.55;;;0.00;99.20;;;;;;5010680;28;20227;-70
2021/04/07 06:10:16;;;;;;;2.67;2.47;;;0.10;98.90;;;;;;5009875;28;20285;-68
2021/04/07 06:12:42;;;;;;;5.63;2.90;;;0.10;99.00;;;;;;5010238;28;20925;-69
2021/04/07 06:15:10;;;;;;;3.78;2.83;;;0.10;98.80;;;;;;5010124;28;20938;-69
2021/04/07 06:17:38;;;;;;;4.07;2.35;;;0.10;98.60;;;;;;5010320;28;20226;-68
2021/04/07 06:20:07;;;;;;;4.85;2.80;;;0.20;98.40;;;;;;5009866;28;20419;-69
2021/04/07 06:22:33;;;;;;;3.20;2.40;;;0.20;98.80;;;;;;5009838;28;20619;-69
2021/04/07 06:25:00;;;;;;;4.05;2.65;;;0.30;98.60;;;;;;5010345;28;20561;-70
2021/04/07 06:27:26;;;;;;;5.15;2.20;;;0.60;98.20;;;;;;5009767;28;20226;-69
2021/04/07 06:29:53;;;;;;;8.57;2.45;;;0.80;97.50;;;;;;5009343;28;20237;-70
2021/04/07 06:32:19;;;;;;;3.38;2.35;;;1.00;97.20;;;;;;5010252;28;20202;-68
2021/04/07 06:34:46;;;;;;;3.22;2.05;;;1.00;96.60;;;;;;5009484;28;20206;-68
2021/04/07 06:37:12;;;;;;;3.13;2.42;;;1.00;96.60;;;;;;5009871;28;20206;-69
2021/04/07 06:39:38;;;;;;;4.55;3.00;;;1.00;96.70;;;;;;5009165;28;20213;-69
2021/04/07 06:42:06;;;;;;;3.50;2.70;;;1.00;97.10;;;;;;5009132;28;20215;-69
2021/04/07 06:44:32;;;;;;;4.32;3.88;;;1.10;96.90;;;;;;5009386;28;20202;-69
2021/04/07 06:46:58;;;;;;;5.72;2.95;;;1.30;96.30;;;;;;5009678;28;20218;-69
2021/04/07 06:49:26;;;;;;;4.68;3.08;;;1.30;95.90;;;;;;5009025;28;20245;-68
2021/04/07 06:51:55;;;;;;;5.80;2.80;;;1.30;95.60;;;;;;5011579;28;20569;-69
2021/04/07 06:54:22;;;;;;;6.35;2.75;;;1.30;95.40;;;;;;5028857;28;20607;-69
2021/04/07 06:56:49;;;;;;;4.95;2.85;;;1.20;95.00;;;;;;5026172;28;20205;-68
2021/04/07 06:59:16;;;;;;;3.25;2.95;;;1.20;95.30;;;;;;5016743;28;20222;-70
2021/04/07 07:01:42;;;;;;;3.30;2.70;;;1.20;95.30;;;;;;5032303;28;20233;-69
2021/04/07 07:04:08;;;;;;;3.05;2.25;;;1.40;95.00;;;;;;5027832;28;20202;-70
2021/04/07 07:06:35;;;;;;;3.10;2.63;;;1.60;94.70;;;;;;5025971;28;20236;-69
2021/04/07 07:09:13;;;;;;;3.40;2.30;;;1.80;94.40;;;;;;5033965;28;20704;-68
2021/04/07 07:11:40;;;;;;;4.47;2.28;;;2.00;93.60;;;;;;5027034;28;20213;-68
2021/04/07 07:14:06;;;;;;;3.40;2.22;;;2.10;93.70;;;;;;5039767;28;20213;-69
2021/04/07 07:16:32;;;;;;;3.75;2.67;;;2.10;92.40;;;;;;5036512;28;20206;-69
2021/04/07 07:18:58;;;;;;;5.47;2.65;;;2.10;92.70;;;;;;5035003;28;20278;-69
2021/04/07 07:21:25;;;;;;;3.40;2.60;;;2.00;92.80;;;;;;5041284;28;20205;-69
2021/04/07 07:23:52;;;;;;;2.25;1.92;;;1.90;92.90;;;;;;5032639;28;20255;-69
2021/04/07 07:26:20;;;;;;;8.68;2.50;;;1.90;92.70;;;;;;5030224;28;20233;-70
2021/04/07 07:28:50;;;;;;;4.38;2.55;;;1.80;93.00;;;;;;5040249;28;20278;-69
2021/04/07 07:31:19;;;;;;;4.07;2.65;;;1.90;92.70;;;;;;5038301;28;20656;-70
2021/04/07 07:33:45;;;;;;;2.20;1.90;;;1.90;92.80;;;;;;5027192;28;20209;-68
2021/04/07 07:36:12;;;;;;;2.47;2.28;;;1.90;92.60;;;;;;5036711;28;20197;-69
2021/04/07 07:38:45;;;;;;;5.10;3.00;;;2.00;92.80;;;;;;5035160;28;20582;-70
2021/04/07 07:41:11;;;;;;;3.83;2.25;;;2.20;92.20;;;;;;5023457;28;20422;-70
2021/04/07 07:43:41;;;;;;;2.92;2.30;;;2.20;92.00;;;;;;5030127;28;20208;-69
2021/04/07 07:46:08;;;;;;;2.83;1.95;;;2.20;91.80;;;;;;5036997;28;20705;-70
2021/04/07 07:48:34;;;;;;;2.88;1.83;;;2.30;91.60;;;;;;5021333;28;20638;-70
2021/04/07 07:51:12;;;;;;;5.95;2.30;;;2.50;91.00;;;;;;5031584;28;20217;-69
2021/04/07 07:53:38;;;;;;;2.63;2.15;;;2.60;90.80;;;;;;5049370;28;20201;-70
2021/04/07 07:56:05;;;;;;;3.65;2.35;;;2.90;91.10;;;;;;5050485;28;20859;-68
2021/04/07 07:58:31;;;;;;;4.20;2.42;;;3.10;90.50;;;;;;5036045;28;20233;-70
2021/04/07 08:01:08;;;;;;;3.65;2.05;;;3.10;90.40;;;;;;5041396;28;20205;-69
2021/04/07 08:03:34;;;;;;;2.45;1.90;;;2.90;90.40;;;;;;5049312;28;20611;-69
2021/04/07 08:06:01;;;;;;;2.05;1.60;;;2.40;90.50;;;;;;5027219;28;20279;-69
2021/04/07 08:08:28;;;;;;;5.15;2.10;;;2.20;91.50;;;;;;5031161;28;20222;-67
2021/04/07 08:10:55;;;;;;;2.17;1.98;;;2.10;91.40;;;;;;5032392;28;20202;-69
2021/04/07 08:13:25;;;;;;;4.93;2.30;;;1.80;91.60;;;;;;5032591;28;20209;-68
2021/04/07 08:15:52;;;;;;;2.97;2.00;;;1.90;92.30;;;;;;5031631;28;20204;-69
2021/04/07 08:18:21;;;;;;;3.22;2.15;;;2.20;92.40;;;;;;5031354;28;20743;-69
2021/04/07 08:20:47;;;;;;;7.25;2.15;;;2.50;91.80;;;;;;5032364;28;20577;-68
2021/04/07 08:23:17;;;;;;;2.88;1.95;;;2.90;91.80;;;;;;5031342;28;20255;-70
2021/04/07 08:25:45;;;;;;;3.00;2.15;;;3.30;90.60;;;;;;5031421;28;20225;-69
2021/04/07 08:28:12;;;;;;;6.03;2.83;;;3.40;90.10;;;;;;5030577;28;20226;-69
2021/04/07 08:30:38;;;;;;;4.57;2.33;;;3.30;90.30;;;;;;5031443;28;20218;-70
2021/04/07 08:33:05;;;;;;;3.30;2.20;;;3.10;90.00;;;;;;5032007;28;20215;-69
2021/04/07 08:35:33;;;;;;;4.63;2.10;;;2.90;90.70;;;;;;5030768;28;20260;-68
2021/04/07 08:38:03;;;;;;;4.97;2.63;;;2.70;91.60;;;;;;5031093;28;20329;-69
2021/04/07 08:40:38;;;;;;;3.80;2.20;;;2.70;92.20;;;;;;5031240;28;20206;-69
2021/04/07 08:43:06;;;;;;;4.72;2.13;;;2.70;92.40;;;;;;5031294;28;20213;-70
2021/04/07 08:45:45;;;;;;;3.85;2.50;;;2.50;93.00;;;;;;5031045;28;20288;-69
2021/04/07 08:48:18;;;;;;;2.90;2.28;;;2.50;93.10;;;;;;5036163;28;20964;-69
2021/04/07 08:50:47;;;;;;;3.17;1.90;;;2.40;93.10;;;;;;5031064;28;20657;-69
2021/04/07 08:53:15;;;;;;;2.35;2.03;;;2.30;93.10;;;;;;5031281;28;20256;-69
2021/04/07 08:55:51;;;;;;;2.13;1.75;;;2.40;92.30;;;;;;5030327;28;20755;-68
2021/04/07 08:58:23;;;;;;;2.90;2.00;;;2.30;91.70;;;;;;5030390;28;20316;-69
2021/04/07 09:00:52;;;;;;;2.40;1.85;;;2.30;91.80;;;;;;5030613;28;20249;-68
2021/04/07 09:03:22;;;;;;;2.25;1.83;;;2.50;92.40;;;;;;5031041;28;20206;-70
2021/04/07 09:05:49;;;;;;;2.80;2.40;;;2.50;92.80;;;;;;5029925;28;20230;-69
2021/04/07 09:08:16;;;;;;;4.78;2.45;;;2.60;93.10;;;;;;5029954;28;20901;-68
2021/04/07 09:10:44;;;;;;;4.65;2.53;;;2.40;94.10;;;;;;5030689;28;20684;-69
2021/04/07 09:13:12;;;;;;;2.70;2.30;;;2.10;95.30;;;;;;5030870;28;20205;-69
2021/04/07 09:15:50;;;;;;;3.40;2.50;;;2.10;95.50;;;;;;5030215;28;20202;-69
2021/04/07 09:18:19;;;;;;;2.38;2.15;;;2.10;96.40;;;;;;5030464;28;20229;-69
2021/04/07 09:20:46;;;;;;;3.20;2.63;;;2.10;95.70;;;;;;5030598;28;20791;-70
2021/04/07 09:23:17;;;;;;;3.35;2.83;;;2.10;95.90;;;;;;5030768;28;20292;-69
2021/04/07 09:25:48;;;;;;;5.22;2.40;;;2.10;96.20;;;;;;5029916;28;20209;-69
2021/04/07 09:28:15;;;;;;;4.00;2.40;;;2.10;95.20;;;;;;5029900;28;20651;-69
2021/04/07 09:30:48;;;;;;;2.67;2.13;;;2.20;93.80;;;;;;5030294;28;20205;-69
2021/04/07 09:33:16;;;;;;;3.50;2.20;;;2.30;92.60;;;;;;5030867;28;20214;-68
2021/04/07 09:35:53;;;;;;;3.53;2.20;;;2.40;92.40;;;;;;5029749;28;20760;-67
2021/04/07 09:38:20;;;;;;;3.28;2.17;;;2.60;93.50;;;;;;5029507;28;20218;-67
2021/04/07 09:40:47;;;;;;;2.17;1.98;;;3.10;91.40;;;;;;5030078;28;20216;-69
2021/04/07 09:43:13;;;;;;;2.67;1.90;;;3.30;91.00;;;;;;5030419;28;20279;-70
2021/04/07 09:45:40;;;;;;;2.53;2.22;;;3.50;90.90;;;;;;5027483;28;20225;-69
2021/04/07 09:48:07;;;;;;;2.85;2.22;;;4.00;91.00;;;;;;5029578;28;20231;-69
2021/04/07 09:50:34;;;;;;;2.67;2.00;;;5.00;88.70;;;;;;5035466;28;20198;-68
2021/04/07 09:53:01;;;;;;;3.10;2.05;;;5.70;83.70;;;;;;5050293;28;20201;-70
2021/04/07 09:55:30;;;;;;;2.40;1.90;;;6.60;82.10;;;;;;5049259;28;20769;-70
2021/04/07 09:58:00;;;;;;;2.25;1.90;;;7.40;78.50;;;;;;5049576;28;20220;-69
2021/04/07 10:00:31;;;;;;;2.90;2.40;;;7.90;75.80;;;;;;5049430;28;20205;-70
2021/04/07 10:02:58;;;;;;;2.80;2.17;;;8.50;75.50;;;;;;5034902;28;20201;-70
2021/04/07 10:05:31;;;;;;;2.38;2.17;;;8.90;72.50;;;;;;5029380;28;20198;-70
2021/04/07 10:08:12;;;;;;;3.13;2.17;;;8.30;73.00;;;;;;5028593;28;20226;-70
2021/04/07 10:10:39;;;;;;;3.28;2.10;;;7.80;72.90;;;;;;5009615;28;20578;-69
2021/04/07 10:13:06;;;;;;;3.08;1.90;;;7.40;72.90;;;;;;5010253;28;20202;-70
2021/04/07 10:15:32;;;;;;;3.03;1.95;;;6.80;73.50;;;;;;5008851;28;20210;-69
2021/04/07 10:18:04;;;;;;;5.10;2.17;;;6.20;74.10;;;;;;5009399;28;20231;-69
2021/04/07 10:20:31;;;;;;;2.40;2.00;;;5.90;76.30;;;;;;5009176;28;20199;-70
2021/04/07 10:22:57;;;;;;;2.67;2.17;;;5.40;79.50;;;;;;5010483;28;20229;-70
2021/04/07 10:25:27;;;;;;;4.00;3.53;;;4.80;83.50;;;;;;5010986;28;20482;-70
2021/04/07 10:28:04;;;;;;;2.85;2.40;;;4.20;86.70;;;;;;5008356;28;20258;-70
2021/04/07 10:30:41;;;;;;;3.22;2.45;;;3.80;88.50;;;;;;5009513;28;20662;-69
2021/04/07 10:33:08;;;;;;;2.40;2.20;;;3.70;89.80;;;;;;5009802;28;20202;-71
2021/04/07 10:35:35;;;;;;;4.03;2.38;;;3.60;89.30;;;;;;5009173;28;20579;-70
2021/04/07 10:38:04;;;;;;;3.75;1.98;;;3.50;89.60;;;;;;5008939;28;20222;-70
2021/04/07 10:40:32;;;;;;;3.58;2.60;;;3.50;90.30;;;;;;5028004;28;20469;-70
2021/04/07 10:43:11;;;;;;;3.58;2.33;;;3.60;90.10;;;;;;5029528;28;20222;-69
2021/04/07 10:45:38;;;;;;;2.67;1.90;;;3.50;86.80;;;;;;5028897;28;20603;-70
2021/04/07 10:48:05;;;;;;;3.55;2.13;;;3.60;85.60;;;;;;5028439;28;20226;-70
2021/04/07 10:50:32;;;;;;;5.05;1.95;;;3.70;84.40;;;;;;5017114;28;20209;-69
2021/04/07 10:52:59;;;;;;;7.28;2.85;;;4.10;83.30;;;;;;5006777;28;20814;-70
2021/04/07 10:58:02;;;;;;;2.67;2.10;;;4.60;80.60;;;;;;5063878;28;20220;-70
2021/04/07 11:00:31;;;;;;;4.55;1.95;;;4.80;80.00;;;;;;5068689;28;20199;-70
2021/04/07 11:02:58;;;;;;;6.32;2.22;;;5.20;79.40;;;;;;5068348;28;20239;-70
2021/04/07 11:05:25;;;;;;;2.72;1.88;;;5.50;79.10;;;;;;5068817;28;20210;-70
2021/04/07 11:08:02;;;;;;;2.30;1.75;;;6.00;78.60;;;;;;5068167;28;20220;-69
2021/04/07 11:10:36;;;;;;;4.20;2.20;;;6.30;74.60;;;;;;5069052;28;20299;-69
2021/04/07 11:13:03;;;;;;;10.10;2.90;;;6.00;74.60;;;;;;5068329;28;20199;-70
2021/04/07 11:15:30;;;;;;;3.72;1.88;;;5.80;74.40;;;;;;5076599;28;20284;-69
2021/04/07 11:17:57;;;;;;;3.75;2.25;;;5.50;74.40;;;;;;5087875;28;20215;-70
2021/04/07 11:20:24;;;;;;;3.75;2.00;;;5.50;75.80;;;;;;5088915;28;20206;-69
2021/04/07 11:22:51;;;;;;;3.70;2.03;;;5.50;75.80;;;;;;5088249;28;20204;-69
2021/04/07 11:25:19;;;;;;;3.38;2.17;;;5.50;75.40;;;;;;5089126;28;20212;-70
2021/04/07 11:27:45;;;;;;;3.17;2.20;;;5.30;74.70;;;;;;5088024;28;20361;-70
2021/04/07 11:30:12;;;;;;;2.85;1.50;;;5.50;74.90;;;;;;5088618;28;20208;-70
2021/04/07 11:32:43;;;;;;;3.45;1.92;;;6.00;75.40;;;;;;5088670;28;20738;-69
2021/04/07 11:35:15;;;;;;;1.60;1.50;;;7.10;74.80;;;;;;5050406;28;20196;-70
2021/04/07 11:37:43;;;;;;;2.70;2.10;;;7.50;68.90;;;;;;5066613;28;20224;-70
2021/04/07 11:40:20;;;;;;;3.30;2.13;;;7.60;68.80;;;;;;5067995;28;20204;-70
2021/04/07 11:42:57;;;;;;;2.95;1.70;;;8.50;68.50;;;;;;5067819;28;20441;-70
2021/04/07 11:45:23;;;;;;;3.33;1.80;;;9.80;66.90;;;;;;5068050;28;20200;-70
2021/04/07 11:47:50;;;;;;;3.00;1.98;;;9.70;61.80;;;;;;5067959;28;20220;-70
2021/04/07 11:50:16;;;;;;;2.28;1.90;;;9.20;63.20;;;;;;5067632;28;20267;-70
2021/04/07 11:52:43;;;;;;;2.65;1.58;;;8.70;63.10;;;;;;5068487;28;20204;-70
2021/04/07 11:55:10;;;;;;;3.20;2.00;;;7.80;65.90;;;;;;5067490;28;20226;-70
2021/04/07 11:57:36;;;;;;;3.00;1.80;;;7.20;66.70;;;;;;5067390;28;20247;-70
2021/04/07 12:00:03;;;;;;;2.20;1.50;;;6.70;67.90;;;;;;5067403;28;20600;-69
2021/04/07 12:02:29;;;;;;;4.40;2.15;;;6.40;67.50;;;;;;5067307;28;20204;-70
2021/04/07 12:04:56;;;;;;;3.45;2.05;;;6.00;68.30;;;;;;5067968;28;20388;-70
2021/04/07 12:07:22;;;;;;;4.78;2.20;;;5.90;69.50;;;;;;5067769;28;20231;-70
2021/04/07 12:09:49;;;;;;;2.60;2.20;;;5.80;69.40;;;;;;5066841;28;20209;-70
2021/04/07 12:12:15;;;;;;;2.00;1.50;;;5.60;69.70;;;;;;5067435;28;20200;-69
2021/04/07 12:14:42;;;;;;;3.08;1.85;;;5.20;70.70;;;;;;5067526;28;20208;-69
2021/04/07 12:17:08;;;;;;;4.07;1.80;;;4.90;70.70;;;;;;5068107;28;20660;-69
2021/04/07 12:19:35;;;;;;;3.90;1.75;;;4.80;72.20;;;;;;5067586;28;20201;-69
2021/04/07 12:22:02;;;;;;;3.90;1.73;;;4.80;72.30;;;;;;5067313;28;20231;-70
2021/04/07 12:24:29;;;;;;;2.17;1.52;;;4.90;72.90;;;;;;5067127;28;20552;-70
2021/04/07 12:26:55;;;;;;;2.83;1.90;;;4.80;73.60;;;;;;5066892;28;20223;-69
2021/04/07 12:29:22;;;;;;;2.60;1.33;;;4.80;74.10;;;;;;5066905;28;20227;-70
2021/04/07 12:31:48;;;;;;;3.65;2.00;;;5.00;74.50;;;;;;5067453;28;20196;-70
2021/04/07 12:34:15;;;;;;;5.50;2.15;;;5.00;75.60;;;;;;5067512;28;20664;-70
2021/04/07 12:36:41;;;;;;;6.55;2.35;;;4.90;75.20;;;;;;5067381;28;20277;-69
2021/04/07 12:39:09;;;;;;;2.85;2.00;;;5.00;76.90;;;;;;5067288;28;20235;-69
2021/04/07 12:41:45;;;;;;;4.18;2.00;;;5.10;77.20;;;;;;5071386;28;20218;-70
2021/04/07 12:44:12;;;;;;;5.07;2.15;;;5.30;75.60;;;;;;5071962;28;20303;-69
2021/04/07 12:46:38;;;;;;;1.92;1.63;;;5.80;75.10;;;;;;5071501;28;20584;-70
2021/04/07 12:49:04;;;;;;;4.00;1.52;;;6.20;71.50;;;;;;5070213;28;20737;-70
2021/04/07 12:51:31;;;;;;;2.85;1.52;;;6.40;70.60;;;;;;5071293;28;20232;-70
2021/04/07 12:53:57;;;;;;;2.03;1.80;;;6.60;72.40;;;;;;5070519;28;20208;-70
2021/04/07 12:56:27;;;;;;;3.35;1.92;;;6.50;71.50;;;;;;5071162;28;20410;-70